Create Custom Reports and Graphics: Custom Report

Latest Observations

Map

15 Minute Data

Lodi West

Latest Observations

15 Minute Data | America/Los_Angeles
as of 1/16/19 11:21 PM PST
Station Date Time Temp (°F) Dew Pt (°F) RH (%) Wind Dir (°) Wind Spd (mph) Wind Gust (mph) Latest Rain (In) Daily Rain (In) Daily Min Temp (°F) Daily Max Temp (°F) Day
Utter - Wilson 1/15/19 0000 46.5   6.1 43.3   3.9 88   8 E | 100 2.7   1.1 3.8   1.8 0.00 0.04 37.6   2.0 54.5   10.6 1/14/19
Clarksburg (CLK) 1/16/19 2315 56.2   3.6 54.7   4.1 94   2 S | 171 14.8   5.9 28.2   12.8 0.00 0.03 51.3   10.3 57.1   2.9 1/16/19
Gorter - Wilson 1/16/19 2315 55.6   3.4 53.8   3.9 94   2 SSE | 165 17.0   5.4 24.3   5.0 0.00 0.00 50.9   7.2 56.8   3.1 1/16/19
Hood (HOD) 1/16/19 2315 56.2   3.4 54.7   3.8 95   1 S | 174 14.6   4.8 26.6   9.0 0.00 1.78 51.2   9.8 57.4   3.0 1/16/19
Courtland-C3 1/16/19 2315 55.1   3.4 53.6   4.1 94   3 SSE | 160 20.3   6.5 31.2   12.5 0.00 1.25 50.4   7.5 56.1   3.0 1/16/19
Pacific Fruit 1/16/19 2315 56.7   3.2 54.7   4.2 93   4 SSE | 162 16.1   5.2 28.2   8.4 0.00 0.02 52.0   5.7 57.7   3.1 1/16/19
Ryer Island South (RIS) 1/16/19 2315 55.9   3.6 55.7   4.2 99   2 SSE | 164 9.1   0.5 18.1   1.6 0.00 1.35 51.6   4.4 57.4   3.7 1/16/19
Guard Rd (Lodi WSW) 1/16/19 2315 56.2   2.9 53.7   4.7 91   6 SSE | 161 11.2   5.4 21.3   10.1 0.00 1.36 51.7   7.8 59.7   4.5 1/16/19
Claussen 1/16/19 2315 55.7   3.0 54.5   4.8 96   6 SSE | 150 3.9   3.1 11.8   3.8 0.00 0.02 51.6   4.6 59.3   5.6 1/16/19

Lodi Central

Latest Observations

15 Minute Data | America/Los_Angeles
as of 1/16/19 11:21 PM PST
Station Date Time Temp (°F) Dew Pt (°F) RH (%) Wind Dir (°) Wind Spd (mph) Wind Gust (mph) Latest Rain (In) Daily Rain (In) Daily Min Temp (°F) Daily Max Temp (°F) Day
Galt West (GAW) 1/16/19 2315 56.5   3.4 53.4   4.1 89   2 S | 170 14.3   3.5 25.1   4.6 0.00 1.56 51.4   9.4 58.5   3.5 1/16/19
Valley Oak 1/16/19 2300 55.2   2.2 53.2   4.6 93   8 S | 172 10.9   1.7 21.9   3.3 0.03 1.33 51.0   7.9 58.4   3.8 1/16/19
Thornton 1/16/19 2315 56.7   3.8 52.8   4.5 86   2 S | 177 13.5   4.5 23.9   6.7 0.00 1.10 51.6   6.5 58.7   3.5 1/16/19
Kost Rd 1/14/19 1700 54.0   1.5 45.6   4.8 73   19 SSE | 147 8.2   5.0 12.0   7.1 0.00 0.01 43.6   5.8 54.9   9.3 1/14/19
DeVries Road-North 1/16/19 2315 56.2   4.3 53.4   4.1 90   0 SSE | 167 15.6   4.4 23.7   6.1 0.01 1.55 50.6   6.2 58.1   4.3 1/16/19
Lodi (LangeTwins) 1/16/19 2315 56.4   4.3 53.2   4.0 89   1 S | 173 11.0   2.6 23.9   8.4 0.01 1.59 51.0   7.4 58.7   4.5 1/16/19
Acampo (ACP) 1/16/19 2315 56.5   4.2 53.5   4.5 90   1 S | 170 12.1   6.2 21.2   10.7 0.02 1.22 51.2   6.2 59.0   5.3 1/16/19
Lodi West (MDW) 1/16/19 2245 54.6   2.2 53.8   4.4 97   8 S | 186 11.4   3.7 21.3   5.7 0.10 1.43 51.2   7.1 59.1   4.4 1/16/19

Latest Observation

19 Stations

15 Minute Data | America/Los_Angeles
as of 1/16/19 11:21 PM PST
Station Date Time Temp (°F) Dew Pt (°F) RH (%) Wind Spd (mph) Wind Dir (°) Wind Gust (mph) Latest Rain (In) Daily Rain (In) Daily Min Temp (°F) Daily Max Temp (°F) Day
Borden Hills 1/16/19 2315 55.8   2.2 54.6   3.9 96   6 15.7   4.5 SSW | 207 25.0   8.6 0.07 1.45 53.2   8.5 60.8   5.8 1/16/19
Collegeville (COL) 1/16/19 2315 56.0   3.0 54.4   5.6 94   9 14.2   0.6 SW | 232 22.9   3.6 0.22 0.55 51.8   10.6 60.9   7.3 1/16/19
Galt-East (EGT) 1/16/19 2315 55.5   2.9 54.4   4.6 96   6 12.1   8.9 S | 190 26.3   16.7 0.07 1.65 51.5   10.6 59.2   5.2 1/16/19
Escalon (ESL) 1/16/19 2315 57.7   4.6 55.5   6.2 92   6 7.9   0.8 S | 175 20.2   4.1 0.04 0.31 52.1   7.0 61.2   7.1 1/16/19
Victor - N (Katusha) 1/16/19 2315 56.3   3.8 55.3   7.8 97   14 14.9   9.0 S | 190 23.5   12.7 0.03 1.06 51.3   8.7 59.4   5.8 1/16/19
Gilbeau Ranch 1/16/19 2300 54.8   2.5 54.3   4.7 98   8 10.3   1.9 S | 185 22.4   7.2 0.34 1.33 51.4   8.2 58.7   4.8 1/16/19
Lodi 1/16/19 1530 57.0 48.6 74 13.5 W | 262 20.7 0.04 0.20 51.4 59.5 1/16/19
Lockeford (LOC) 1/16/19 2315 56.5   3.0 35.3   43.7 46   39 15.4   7.7 SSW | 201 26.4   10.9 0.05 1.30 52.5   9.9 60.4   6.2 1/16/19
Lone Oak-L28 1/16/19 2315 54.9   2.4 53.7   5.2 96   10 12.4   1.5 SW | 223 21.9   2.9 0.37 0.92 51.7   6.1 60.3   6.7 1/16/19
Sheldon (SHL) 1/16/19 2315 56.0   3.1 53.9   4.5 92   5 15.9   3.8 S | 181 24.2   6.4 0.01 1.28 51.8   9.0 59.5   5.6 1/16/19
Sierra Loma-L27 1/16/19 2315 55.4   2.8 54.1   3.9 95   4 14.1   4.3 ESE | 111 25.3   9.4 0.05 1.34 52.2   9.1 59.8   5.5 1/16/19
Simmerhorn (SIM) 1/16/19 2315 54.9   3.0 53.6   6.0 95   10 - - - - - 51.3   7.8 58.6   4.7 1/16/19
Sloughhouse (SLH) 1/16/19 2300 55.7   3.2 54.4   4.8 95   6 13.0   9.8 SW | 217 30.6   25.2 0.28 1.49 52.0   14.8 60.2   6.1 1/16/19
5 Wells 1/16/19 2315 57.0   4.6 53.0   2.7 86   6 15.7   4.8 S | 184 23.0   7.5 0.03 1.23 51.8   8.7 59.0   5.0 1/16/19